createdAt,value
2022-09-27T00:01:31.702Z,60.34
2022-09-27T00:04:09.679Z,60.29
2022-09-27T00:07:07.429Z,60.35
2022-09-27T00:09:39.949Z,60.22
2022-09-27T00:12:14.914Z,60.38
2022-09-27T00:15:12.408Z,60.40
2022-09-27T00:18:07.084Z,60.12
2022-09-27T00:20:40.259Z,60.48
2022-09-27T00:23:11.280Z,60.35
2022-09-27T00:25:43.367Z,60.48
2022-09-27T00:28:44.028Z,60.64
2022-09-27T00:31:55.692Z,60.51
2022-09-27T00:34:28.009Z,60.67
2022-09-27T00:40:50.876Z,60.60
2022-09-27T00:43:27.599Z,60.63
2022-09-27T00:46:28.529Z,60.55
2022-09-27T00:49:07.753Z,60.71
2022-09-27T00:52:04.806Z,60.87
2022-09-27T00:55:25.293Z,60.77
2022-09-27T00:57:59.325Z,60.82
2022-09-27T01:00:30.483Z,60.95
2022-09-27T01:03:04.647Z,60.85
2022-09-27T01:08:40.715Z,60.73
2022-09-27T01:11:30.018Z,60.60
2022-09-27T01:17:54.661Z,61.08
2022-09-27T01:21:23.794Z,60.95
2022-09-27T01:25:05.081Z,60.84
2022-09-27T01:28:06.614Z,60.98
2022-09-27T01:30:48.563Z,60.91
2022-09-27T01:33:32.044Z,61.01
2022-09-27T01:36:28.329Z,61.11
2022-09-27T01:39:18.978Z,60.99
2022-09-27T01:42:22.862Z,60.85
2022-09-27T01:45:05.607Z,60.83
2022-09-27T01:47:52.927Z,60.68
2022-09-27T01:51:14.881Z,60.40
2022-09-27T01:54:20.825Z,60.31
2022-09-27T01:57:44.018Z,60.53
2022-09-27T02:00:22.225Z,60.55
2022-09-27T02:03:23.324Z,60.51
2022-09-27T02:06:06.652Z,60.79
2022-09-27T02:13:05.412Z,60.82
2022-09-27T02:15:44.436Z,60.52
2022-09-27T02:18:22.506Z,60.70
2022-09-27T02:21:23.852Z,60.57
2022-09-27T02:24:26.476Z,60.65
2022-09-27T02:27:04.647Z,60.77
2022-09-27T02:30:32.238Z,60.60
2022-09-27T02:33:30.524Z,60.30
2022-09-27T02:36:26.015Z,60.41
2022-09-27T02:39:23.724Z,60.24
2022-09-27T02:45:27.217Z,60.83
2022-09-27T02:48:08.610Z,60.56
2022-09-27T02:51:31.408Z,60.97
2022-09-27T02:54:30.017Z,60.68
2022-09-27T03:00:23.319Z,60.76
2022-09-27T03:02:59.515Z,60.97
2022-09-27T03:05:38.651Z,60.83
2022-09-27T03:08:10.377Z,60.76
2022-09-27T03:10:41.656Z,60.88
2022-09-27T03:13:11.428Z,60.95
2022-09-27T03:15:46.174Z,61.09
2022-09-27T03:18:21.952Z,60.98
2022-09-27T03:21:02.072Z,60.97
2022-09-27T03:23:43.900Z,60.93
2022-09-27T03:26:22.664Z,61.06
2022-09-27T03:28:55.387Z,61.28
2022-09-27T03:31:27.739Z,61.52
2022-09-27T03:34:04.722Z,61.32
2022-09-27T03:36:43.167Z,61.24
2022-09-27T03:39:16.997Z,61.16
2022-09-27T03:41:51.055Z,61.03
2022-09-27T03:44:45.798Z,60.81
2022-09-27T03:47:43.537Z,61.00
2022-09-27T03:50:17.886Z,61.09
2022-09-27T04:00:10.140Z,61.15
2022-09-27T04:02:48.483Z,61.26
2022-09-27T04:05:20.019Z,60.99
2022-09-27T04:08:40.132Z,61.11
2022-09-27T04:11:41.138Z,61.33
2022-09-27T04:15:29.921Z,61.57
2022-09-27T04:18:05.122Z,61.72
2022-09-27T04:20:40.045Z,61.63
2022-09-27T04:24:00.281Z,61.58
2022-09-27T04:30:20.751Z,61.35
2022-09-27T04:32:58.058Z,61.56
2022-09-27T04:39:43.695Z,61.53
2022-09-27T04:42:14.718Z,61.16
2022-09-27T04:45:34.740Z,61.26
2022-09-27T04:48:29.827Z,61.33
2022-09-27T04:54:32.491Z,61.26
2022-09-27T04:57:51.181Z,61.39
2022-09-27T05:01:11.452Z,61.16
2022-09-27T05:04:32.095Z,61.47
2022-09-27T05:07:54.190Z,61.12
2022-09-27T05:10:26.981Z,61.29
2022-09-27T05:13:25.321Z,61.45
2022-09-27T05:19:48.177Z,61.58
2022-09-27T05:22:22.975Z,61.43
2022-09-27T05:25:17.544Z,61.36
2022-09-27T05:27:52.021Z,61.08
2022-09-27T05:30:30.719Z,61.17
2022-09-27T05:33:05.894Z,61.17
2022-09-27T05:39:08.788Z,61.37
2022-09-27T05:45:32.543Z,61.47
2022-09-27T05:48:06.957Z,61.45
2022-09-27T05:50:41.882Z,61.51
2022-09-27T05:53:18.868Z,61.61
2022-09-27T05:56:41.099Z,61.61
2022-09-27T05:59:36.112Z,61.26
2022-09-27T06:02:07.492Z,61.12
2022-09-27T06:05:05.813Z,60.99
2022-09-27T06:07:35.631Z,61.23
2022-09-27T06:10:06.871Z,61.26
2022-09-27T06:12:37.777Z,61.02
2022-09-27T06:15:10.376Z,61.09
2022-09-27T06:17:39.429Z,61.14
2022-09-27T06:20:11.121Z,61.13
2022-09-27T06:22:40.979Z,61.13
2022-09-27T06:25:10.748Z,61.20
2022-09-27T06:27:40.220Z,60.96
2022-09-27T06:30:13.214Z,60.81
2022-09-27T06:32:44.576Z,60.85
2022-09-27T06:35:15.011Z,60.85
2022-09-27T06:37:44.778Z,60.87
2022-09-27T06:40:14.184Z,61.05
2022-09-27T06:42:43.779Z,61.06
2022-09-27T06:45:13.411Z,61.16
2022-09-27T06:47:44.130Z,61.26
2022-09-27T06:50:19.524Z,61.21
2022-09-27T06:52:58.220Z,61.03
2022-09-27T06:55:33.314Z,60.97
2022-09-27T06:58:22.605Z,60.58
2022-09-27T07:00:55.737Z,60.47
2022-09-27T07:03:40.991Z,60.48
2022-09-27T07:06:24.508Z,60.61
2022-09-27T07:08:58.025Z,60.66
2022-09-27T07:11:32.785Z,60.50
2022-09-27T07:14:09.657Z,60.43
2022-09-27T07:16:38.456Z,60.58
2022-09-27T07:19:14.135Z,60.60
2022-09-27T07:22:56.548Z,60.45
2022-09-27T07:25:33.176Z,60.74
2022-09-27T07:28:31.193Z,60.39
2022-09-27T07:31:04.451Z,60.20
2022-09-27T07:33:43.765Z,59.83
2022-09-27T07:36:17.779Z,59.78
2022-09-27T07:38:52.320Z,59.69
2022-09-27T07:41:48.737Z,59.49
2022-09-27T07:48:11.687Z,58.65
2022-09-27T07:51:11.555Z,58.06
2022-09-27T07:53:46.794Z,57.75
2022-09-27T07:57:30.286Z,57.88
2022-09-27T08:00:02.609Z,57.62
2022-09-27T08:02:59.454Z,57.36
2022-09-27T08:05:33.695Z,57.22
2022-09-27T08:08:05.571Z,57.32
2022-09-27T08:10:39.512Z,57.05
2022-09-27T08:13:35.880Z,57.32
2022-09-27T08:16:57.339Z,57.08
2022-09-27T08:19:30.076Z,56.97
2022-09-27T08:22:03.485Z,57.00
2022-09-27T08:25:04.769Z,56.60
2022-09-27T08:27:38.057Z,56.58
2022-09-27T08:30:25.508Z,56.18
2022-09-27T08:33:07.468Z,55.85
2022-09-27T08:35:39.885Z,55.52
2022-09-27T08:38:14.785Z,55.25
2022-09-27T08:42:02.799Z,54.75
2022-09-27T08:45:07.757Z,54.07
2022-09-27T08:47:45.940Z,54.10
2022-09-27T08:50:39.710Z,53.80
2022-09-27T08:53:50.253Z,53.18
2022-09-27T08:56:46.213Z,52.90
2022-09-27T09:03:06.421Z,51.54
2022-09-27T09:06:06.490Z,51.42
2022-09-27T09:09:11.608Z,50.78
2022-09-27T09:16:03.653Z,49.86
2022-09-27T09:19:27.588Z,49.58
2022-09-27T09:25:45.149Z,49.00
2022-09-27T09:28:44.283Z,48.93
2022-09-27T09:31:26.320Z,48.97
2022-09-27T09:37:17.710Z,48.06
2022-09-27T09:39:53.731Z,47.52
2022-09-27T09:42:49.391Z,48.06
2022-09-27T09:45:27.559Z,47.90
2022-09-27T09:48:05.729Z,47.42
2022-09-27T09:50:43.741Z,47.34
2022-09-27T09:53:43.612Z,47.32
2022-09-27T09:56:23.170Z,46.99
2022-09-27T09:59:21.030Z,46.50
2022-09-27T10:02:31.286Z,46.15
2022-09-27T10:05:26.934Z,46.17
2022-09-27T10:08:25.422Z,45.65
2022-09-27T10:11:23.487Z,45.60
2022-09-27T10:17:43.363Z,45.11
2022-09-27T10:20:47.051Z,44.84
2022-09-27T10:23:30.253Z,44.43
2022-09-27T10:26:04.347Z,44.01
2022-09-27T10:28:41.538Z,44.00
2022-09-27T10:31:42.662Z,44.10
2022-09-27T10:34:20.285Z,43.60
2022-09-27T10:37:03.634Z,43.67
2022-09-27T10:39:33.492Z,43.81
2022-09-27T10:42:04.057Z,43.74
2022-09-27T10:44:33.496Z,43.41
2022-09-27T10:47:09.555Z,43.38
2022-09-27T10:49:40.264Z,43.23
2022-09-27T10:52:15.511Z,42.85
2022-09-27T10:54:54.088Z,42.96
2022-09-27T10:57:28.265Z,42.76
2022-09-27T11:00:00.737Z,42.84
2022-09-27T11:02:34.511Z,42.46
2022-09-27T11:05:15.240Z,42.32
2022-09-27T11:07:55.553Z,42.41
2022-09-27T11:10:28.435Z,42.24
2022-09-27T11:13:14.030Z,42.10
2022-09-27T11:16:07.836Z,41.86
2022-09-27T11:18:44.324Z,41.97
2022-09-27T11:21:20.903Z,41.63
2022-09-27T11:23:59.942Z,41.62
2022-09-27T11:26:39.846Z,41.72
2022-09-27T11:29:20.733Z,42.10
2022-09-27T11:32:05.867Z,41.64
2022-09-27T11:35:00.939Z,41.33
2022-09-27T11:37:58.194Z,41.06
2022-09-27T11:41:03.418Z,41.16
2022-09-27T11:44:17.502Z,41.12
2022-09-27T11:46:57.172Z,40.72
2022-09-27T11:49:49.666Z,40.53
2022-09-27T11:52:42.867Z,40.72
2022-09-27T11:55:34.014Z,40.74
2022-09-27T11:58:55.586Z,40.28
2022-09-27T12:02:14.635Z,40.00
2022-09-27T12:17:50.646Z,40.19
2022-09-27T12:21:10.898Z,40.43
2022-09-27T12:28:00.053Z,40.20
2022-09-27T12:30:40.073Z,40.15
2022-09-27T12:33:22.850Z,40.04
2022-09-27T12:40:33.915Z,40.28
2022-09-27T12:43:13.809Z,40.44
2022-09-27T12:46:36.883Z,40.50
2022-09-27T12:52:56.341Z,42.19
2022-09-27T12:55:45.256Z,42.77
2022-09-27T12:59:03.455Z,43.13
2022-09-27T13:06:24.852Z,43.89
2022-09-27T13:09:43.261Z,44.25
2022-09-27T13:13:04.680Z,44.76
2022-09-27T13:15:42.787Z,45.13
2022-09-27T13:18:54.105Z,45.82
2022-09-27T13:22:12.191Z,46.57
2022-09-27T13:31:15.331Z,48.83
2022-09-27T13:34:44.636Z,53.68
2022-09-27T13:38:06.393Z,54.06
2022-09-27T13:45:01.786Z,53.51
2022-09-27T13:48:39.495Z,53.90
2022-09-27T13:51:39.275Z,53.80
2022-09-27T13:55:27.456Z,54.01
2022-09-27T13:58:07.066Z,54.30
2022-09-27T14:00:44.390Z,54.77
2022-09-27T14:03:23.367Z,54.64
2022-09-27T14:06:21.423Z,54.86
2022-09-27T14:15:30.925Z,55.52
2022-09-27T14:18:06.063Z,55.66
2022-09-27T14:20:45.551Z,55.66
2022-09-27T14:23:23.608Z,55.64
2022-09-27T14:26:45.378Z,55.78
2022-09-27T14:30:29.897Z,55.89
2022-09-27T14:33:54.423Z,56.24
2022-09-27T14:37:07.917Z,56.27
2022-09-27T14:40:51.187Z,56.60
2022-09-27T14:43:46.269Z,58.06
2022-09-27T14:50:35.096Z,59.49
2022-09-27T15:00:44.783Z,61.15
2022-09-27T15:07:15.021Z,62.34
2022-09-27T15:13:24.702Z,68.15
2022-09-27T15:16:24.227Z,68.02
2022-09-27T15:19:48.802Z,65.11
2022-09-27T15:22:52.675Z,64.85
2022-09-27T15:25:34.806Z,64.60
2022-09-27T15:28:09.166Z,64.43
2022-09-27T15:31:08.130Z,64.25
2022-09-27T15:34:16.671Z,63.79
2022-09-27T15:37:23.765Z,63.53
2022-09-27T15:40:31.980Z,63.36
2022-09-27T15:43:04.284Z,62.84
2022-09-27T15:45:35.955Z,62.92
2022-09-27T15:51:44.001Z,62.53
2022-09-27T15:54:14.446Z,62.59
2022-09-27T15:56:43.846Z,62.81
2022-09-27T15:59:21.556Z,62.74
2022-09-27T16:01:52.328Z,62.59
2022-09-27T16:04:21.467Z,62.52
2022-09-27T16:06:50.552Z,62.56
2022-09-27T16:09:20.591Z,62.56
2022-09-27T16:11:51.071Z,62.79
2022-09-27T16:14:19.749Z,62.95
2022-09-27T16:16:52.722Z,62.80
2022-09-27T16:19:22.025Z,62.86
2022-09-27T16:21:53.149Z,62.89
2022-09-27T16:24:26.282Z,62.94
2022-09-27T16:26:56.836Z,62.90
2022-09-27T16:29:25.541Z,62.92
2022-09-27T16:31:54.099Z,63.02
2022-09-27T16:34:24.610Z,63.12
2022-09-27T16:36:53.476Z,63.16
2022-09-27T16:39:24.975Z,63.15
2022-09-27T16:41:54.682Z,63.33
2022-09-27T16:44:25.228Z,63.27
2022-09-27T16:46:54.918Z,63.20
2022-09-27T16:49:43.352Z,63.12
2022-09-27T16:52:13.036Z,63.16
2022-09-27T16:54:43.627Z,63.25
2022-09-27T16:57:15.723Z,63.19
2022-09-27T16:59:48.736Z,63.43
2022-09-27T17:02:18.650Z,63.45
2022-09-27T17:04:47.990Z,63.63
2022-09-27T17:07:18.635Z,63.66
2022-09-27T17:09:48.144Z,63.54
2022-09-27T17:12:17.672Z,63.57
2022-09-27T17:14:47.961Z,63.69
2022-09-27T17:17:17.916Z,63.60
2022-09-27T17:19:48.467Z,63.44
2022-09-27T17:22:19.595Z,63.53
2022-09-27T17:24:49.844Z,63.62
2022-09-27T17:27:23.963Z,63.63
2022-09-27T17:29:57.754Z,63.67
2022-09-27T17:32:27.649Z,63.78
2022-09-27T17:34:58.377Z,63.84
2022-09-27T17:37:29.077Z,63.88
2022-09-27T17:39:59.731Z,63.81
2022-09-27T17:42:29.806Z,63.86
2022-09-27T17:45:00.183Z,63.85
2022-09-27T17:47:48.803Z,63.84
2022-09-27T17:50:27.461Z,63.93
2022-09-27T17:52:58.764Z,64.02
2022-09-27T17:55:29.705Z,63.83
2022-09-27T17:58:02.266Z,64.01
2022-09-27T18:00:33.037Z,64.02
2022-09-27T18:03:03.070Z,64.27
2022-09-27T18:05:33.170Z,64.26
2022-09-27T18:08:04.151Z,64.27
2022-09-27T18:10:35.176Z,63.77
2022-09-27T18:13:06.821Z,63.75
2022-09-27T18:15:38.713Z,64.06
2022-09-27T18:18:09.251Z,64.47
2022-09-27T18:20:40.444Z,64.31
2022-09-27T18:23:12.644Z,64.07
2022-09-27T18:25:42.639Z,63.97
2022-09-27T18:28:14.330Z,63.64
2022-09-27T18:30:44.504Z,63.48
2022-09-27T18:33:14.239Z,63.38
2022-09-27T18:35:44.807Z,63.38
2022-09-27T18:38:14.958Z,63.47
2022-09-27T18:40:56.307Z,63.54
2022-09-27T18:43:28.514Z,63.60
2022-09-27T18:46:24.014Z,63.44
2022-09-27T18:48:54.392Z,63.49
2022-09-27T18:51:31.908Z,63.53
2022-09-27T18:54:08.841Z,63.46
2022-09-27T18:56:44.136Z,63.60
2022-09-27T18:59:16.936Z,63.63
2022-09-27T19:01:54.978Z,63.60
2022-09-27T19:04:26.326Z,63.45
2022-09-27T19:06:57.613Z,63.64
2022-09-27T19:09:29.337Z,63.60
2022-09-27T19:11:58.943Z,63.62
2022-09-27T19:14:28.839Z,63.55
2022-09-27T19:16:59.612Z,63.46
2022-09-27T19:19:28.546Z,63.37
2022-09-27T19:21:59.654Z,63.33
2022-09-27T19:24:35.450Z,63.24
2022-09-27T19:27:05.633Z,63.40
2022-09-27T19:29:37.725Z,63.52
2022-09-27T19:32:07.921Z,63.58
2022-09-27T19:34:39.108Z,63.54
2022-09-27T19:37:09.784Z,63.43
2022-09-27T19:39:40.872Z,63.37
2022-09-27T19:42:10.656Z,63.44
2022-09-27T19:44:39.368Z,63.50
2022-09-27T19:47:09.460Z,63.52
2022-09-27T19:49:41.031Z,63.39
2022-09-27T19:52:11.425Z,63.39
2022-09-27T19:54:40.829Z,63.39
2022-09-27T19:57:13.205Z,63.37
2022-09-27T19:59:44.495Z,63.43
2022-09-27T20:02:13.655Z,63.54
2022-09-27T20:04:44.000Z,63.60
2022-09-27T20:07:17.540Z,63.61
2022-09-27T20:09:47.261Z,63.42
2022-09-27T20:12:17.128Z,63.35
2022-09-27T20:14:47.076Z,63.20
2022-09-27T20:17:19.134Z,63.15
2022-09-27T20:19:48.791Z,63.27
2022-09-27T20:22:17.329Z,63.35
2022-09-27T20:24:49.204Z,63.22
2022-09-27T20:27:20.141Z,63.11
2022-09-27T20:29:49.025Z,63.29
2022-09-27T20:32:27.672Z,63.36
2022-09-27T20:35:01.454Z,63.31
2022-09-27T20:37:30.902Z,63.25
2022-09-27T20:40:02.172Z,63.06
2022-09-27T20:42:32.598Z,63.27
2022-09-27T20:45:03.096Z,63.26
2022-09-27T20:47:33.284Z,63.28
2022-09-27T20:50:03.807Z,63.43
2022-09-27T20:52:34.348Z,63.37
2022-09-27T20:55:07.874Z,63.28
2022-09-27T20:57:56.466Z,63.22
2022-09-27T21:00:27.104Z,63.27
2022-09-27T21:02:58.852Z,63.17
2022-09-27T21:05:28.050Z,63.21
2022-09-27T21:07:59.057Z,63.21
2022-09-27T21:10:28.454Z,63.15
2022-09-27T21:12:59.980Z,63.08
2022-09-27T21:15:33.124Z,63.12
2022-09-27T21:18:03.177Z,63.28
2022-09-27T21:20:32.146Z,63.40
2022-09-27T21:23:01.385Z,63.30
2022-09-27T21:25:32.245Z,63.13
2022-09-27T21:28:03.790Z,63.04
2022-09-27T21:30:33.488Z,62.92
2022-09-27T21:33:06.881Z,63.13
2022-09-27T21:35:36.343Z,63.30
2022-09-27T21:38:05.379Z,63.27
2022-09-27T21:40:36.152Z,63.19
2022-09-27T21:43:07.336Z,63.38
2022-09-27T21:45:37.819Z,63.35
2022-09-27T21:48:07.672Z,63.55
2022-09-27T21:50:37.211Z,63.63
2022-09-27T21:53:07.949Z,63.71
2022-09-27T21:55:38.312Z,63.56
2022-09-27T21:58:08.666Z,63.53
2022-09-27T22:00:37.263Z,63.59
2022-09-27T22:03:08.181Z,63.78
2022-09-27T22:05:36.605Z,63.81
2022-09-27T22:08:06.507Z,63.70
2022-09-27T22:10:36.604Z,63.84
2022-09-27T22:13:05.991Z,63.88
2022-09-27T22:15:36.841Z,63.94
2022-09-27T22:18:08.608Z,63.92
2022-09-27T22:20:37.510Z,63.86
2022-09-27T22:23:06.325Z,63.76
2022-09-27T22:25:34.774Z,63.86
2022-09-27T22:28:04.236Z,63.81
2022-09-27T22:30:36.463Z,63.78
2022-09-27T22:33:06.791Z,63.70
2022-09-27T22:35:37.834Z,63.82
2022-09-27T22:38:09.302Z,63.75
2022-09-27T22:40:39.145Z,63.67
2022-09-27T22:43:08.472Z,63.67
2022-09-27T22:45:39.555Z,63.60
2022-09-27T22:48:11.387Z,63.47
2022-09-27T22:50:39.899Z,63.40
2022-09-27T22:53:09.164Z,63.21
2022-09-27T22:55:40.638Z,63.25
2022-09-27T22:58:11.090Z,63.44
2022-09-27T23:00:41.645Z,63.26
2022-09-27T23:03:10.984Z,63.35
2022-09-27T23:05:40.886Z,63.39
2022-09-27T23:08:09.526Z,63.35
2022-09-27T23:10:38.555Z,63.30
2022-09-27T23:13:08.098Z,63.09
2022-09-27T23:15:37.066Z,63.13
2022-09-27T23:18:06.817Z,62.98
2022-09-27T23:20:35.498Z,62.88
2022-09-27T23:23:06.079Z,62.84
2022-09-27T23:25:37.063Z,63.05
2022-09-27T23:28:06.117Z,63.12
2022-09-27T23:30:34.986Z,63.14
2022-09-27T23:33:03.414Z,63.06
2022-09-27T23:35:33.759Z,63.18
2022-09-27T23:38:02.731Z,63.17
2022-09-27T23:40:32.806Z,63.20
2022-09-27T23:43:01.513Z,63.09
2022-09-27T23:45:33.095Z,63.13
2022-09-27T23:48:04.642Z,63.21
2022-09-27T23:50:33.302Z,63.24
2022-09-27T23:53:02.095Z,63.39
2022-09-27T23:55:35.212Z,63.37
2022-09-27T23:58:07.674Z,63.48
